createdAt,value
2018-03-17T00:00:03.198Z,94.50
2018-03-17T00:02:30.799Z,94.60
2018-03-17T00:04:58.389Z,94.60
2018-03-17T00:07:25.979Z,94.50
2018-03-17T00:09:54.339Z,94.00
2018-03-17T00:12:21.930Z,94.00
2018-03-17T00:14:49.519Z,94.20
2018-03-17T00:17:17.102Z,94.20
2018-03-17T00:19:44.692Z,94.40
2018-03-17T00:22:12.286Z,94.30
2018-03-17T00:24:40.646Z,94.40
2018-03-17T00:27:08.240Z,94.40
2018-03-17T00:29:35.843Z,94.30
2018-03-17T00:32:03.463Z,94.10
2018-03-17T00:34:31.829Z,94.00
2018-03-17T00:37:00.227Z,94.00
2018-03-17T00:39:28.578Z,93.60
2018-03-17T00:41:56.173Z,93.60
2018-03-17T00:44:24.566Z,93.60
2018-03-17T00:46:52.159Z,93.60
2018-03-17T00:49:19.747Z,93.40
2018-03-17T00:51:47.335Z,92.90
2018-03-17T00:54:15.691Z,93.10
2018-03-17T00:56:43.289Z,92.80
2018-03-17T00:59:11.662Z,92.80
2018-03-17T01:01:39.255Z,92.80
2018-03-17T01:04:06.855Z,93.00
2018-03-17T01:06:34.442Z,92.80
2018-03-17T01:09:02.036Z,92.50
2018-03-17T01:11:30.430Z,92.60
2018-03-17T01:13:58.034Z,92.60
2018-03-17T01:16:25.624Z,92.70
2018-03-17T01:18:53.990Z,92.40
2018-03-17T01:21:21.574Z,92.40
2018-03-17T01:23:49.166Z,92.20
2018-03-17T01:26:17.526Z,91.80
2018-03-17T01:28:45.122Z,91.80
2018-03-17T01:31:12.723Z,92.00
2018-03-17T01:33:40.331Z,92.10
2018-03-17T01:36:08.758Z,92.30
2018-03-17T01:38:36.346Z,92.30
2018-03-17T01:41:03.959Z,92.50
2018-03-17T01:43:32.319Z,92.40
2018-03-17T01:45:59.915Z,92.40
2018-03-17T01:48:27.510Z,92.30
2018-03-17T01:50:55.140Z,92.40
2018-03-17T01:53:22.752Z,92.50
2018-03-17T01:55:51.101Z,92.10
2018-03-17T01:58:18.688Z,92.10
2018-03-17T02:00:46.275Z,91.90
2018-03-17T02:03:13.874Z,92.10
2018-03-17T02:05:42.222Z,92.10
2018-03-17T02:08:09.859Z,92.10
2018-03-17T02:10:37.446Z,92.10
2018-03-17T02:13:05.043Z,92.10
2018-03-17T02:15:33.402Z,93.10
2018-03-17T02:18:00.991Z,93.00
2018-03-17T02:20:29.402Z,92.90
2018-03-17T02:22:56.991Z,92.90
2018-03-17T02:25:24.578Z,92.50
2018-03-17T02:27:52.163Z,92.50
2018-03-17T02:30:19.755Z,92.80
2018-03-17T02:32:47.340Z,92.80
2018-03-17T02:35:14.934Z,92.60
2018-03-17T02:37:42.523Z,92.90
2018-03-17T02:40:10.887Z,92.80
2018-03-17T02:42:38.476Z,92.80
2018-03-17T02:45:06.832Z,92.60
2018-03-17T02:47:34.424Z,92.50
2018-03-17T02:50:02.783Z,92.40
2018-03-17T02:52:30.423Z,92.40
2018-03-17T02:54:58.012Z,92.50
2018-03-17T02:57:25.611Z,92.50
2018-03-17T02:59:53.958Z,92.40
2018-03-17T03:02:21.544Z,92.40
2018-03-17T03:04:49.942Z,92.40
2018-03-17T03:07:18.290Z,92.40
2018-03-17T03:09:45.879Z,92.40
2018-03-17T03:12:14.235Z,92.20
2018-03-17T03:14:41.814Z,92.20
2018-03-17T03:17:09.398Z,92.10
2018-03-17T03:19:37.764Z,92.40
2018-03-17T03:22:06.114Z,92.80
2018-03-17T03:24:33.699Z,92.40
2018-03-17T03:27:01.291Z,92.10
2018-03-17T03:29:29.692Z,92.10
2018-03-17T03:31:57.275Z,92.00
2018-03-17T03:34:24.859Z,92.20
2018-03-17T03:36:52.442Z,92.30
2018-03-17T03:39:20.023Z,92.00
2018-03-17T03:41:48.384Z,91.90
2018-03-17T03:44:16.015Z,91.90
2018-03-17T03:46:43.598Z,91.80
2018-03-17T03:49:11.187Z,91.70
2018-03-17T03:51:38.779Z,91.80
2018-03-17T03:54:07.135Z,91.80
2018-03-17T03:56:34.727Z,91.80
2018-03-17T03:59:02.323Z,92.20
2018-03-17T04:01:29.918Z,92.20
2018-03-17T04:03:57.511Z,92.20
2018-03-17T04:06:25.863Z,91.90
2018-03-17T04:08:53.455Z,91.90
2018-03-17T04:11:21.846Z,92.20
2018-03-17T04:13:50.243Z,92.00
2018-03-17T04:16:17.828Z,92.00
2018-03-17T04:18:45.410Z,91.90
2018-03-17T04:21:13.035Z,92.10
2018-03-17T04:23:40.614Z,91.90
2018-03-17T04:26:08.199Z,91.80
2018-03-17T04:28:35.838Z,91.70
2018-03-17T04:31:03.611Z,91.80
2018-03-17T04:33:31.194Z,91.70
2018-03-17T04:35:58.800Z,91.70
2018-03-17T04:38:26.387Z,91.80
2018-03-17T04:40:53.978Z,91.70
2018-03-17T04:43:21.559Z,91.50
2018-03-17T04:45:49.142Z,91.60
2018-03-17T04:48:16.751Z,91.50
2018-03-17T04:50:44.343Z,91.60
2018-03-17T04:53:11.938Z,91.80
2018-03-17T04:55:39.537Z,92.00
2018-03-17T04:58:07.131Z,91.70
2018-03-17T05:00:34.723Z,91.70
2018-03-17T05:03:02.359Z,91.80
2018-03-17T05:05:29.956Z,92.00
2018-03-17T05:07:57.543Z,92.20
2018-03-17T05:10:25.131Z,92.30
2018-03-17T05:12:52.725Z,92.10
2018-03-17T05:15:20.359Z,92.20
2018-03-17T05:17:48.712Z,92.30
2018-03-17T05:20:16.388Z,92.30
2018-03-17T05:22:43.947Z,92.50
2018-03-17T05:25:11.535Z,92.90
2018-03-17T05:27:39.887Z,93.00
2018-03-17T05:30:07.475Z,93.00
2018-03-17T05:32:35.835Z,92.90
2018-03-17T05:35:03.480Z,92.90
2018-03-17T05:37:31.092Z,93.00
2018-03-17T05:39:59.460Z,93.20
2018-03-17T05:42:27.060Z,93.20
2018-03-17T05:44:54.667Z,93.10
2018-03-17T05:47:22.258Z,93.00
2018-03-17T05:49:50.607Z,93.40
2018-03-17T05:52:18.989Z,93.10
2018-03-17T05:54:46.579Z,93.10
2018-03-17T05:57:14.172Z,93.30
2018-03-17T05:59:41.763Z,93.10
2018-03-17T06:02:09.351Z,93.20
2018-03-17T06:04:36.934Z,93.00
2018-03-17T06:07:04.523Z,93.00
2018-03-17T06:09:32.882Z,92.90
2018-03-17T06:12:00.515Z,92.80
2018-03-17T06:14:28.098Z,92.70
2018-03-17T06:16:55.682Z,92.70
2018-03-17T06:19:23.274Z,92.90
2018-03-17T06:21:50.867Z,93.10
2018-03-17T06:24:18.456Z,92.60
2018-03-17T06:26:46.087Z,92.70
2018-03-17T06:29:13.687Z,92.60
2018-03-17T06:31:41.275Z,92.60
2018-03-17T06:34:08.875Z,92.40
2018-03-17T06:36:36.458Z,92.30
2018-03-17T06:39:04.087Z,92.40
2018-03-17T06:41:32.443Z,92.10
2018-03-17T06:44:00.031Z,92.10
2018-03-17T06:46:28.383Z,91.90
2018-03-17T06:48:55.971Z,91.90
2018-03-17T06:51:24.327Z,92.10
2018-03-17T06:53:51.920Z,92.10
2018-03-17T06:56:20.275Z,92.00
2018-03-17T06:58:47.872Z,92.00
2018-03-17T07:01:16.220Z,91.90
2018-03-17T07:03:43.808Z,91.80
2018-03-17T07:06:12.163Z,92.00
2018-03-17T07:08:39.751Z,92.00
2018-03-17T07:11:07.343Z,92.20
2018-03-17T07:13:34.929Z,91.90
2018-03-17T07:16:02.518Z,91.70
2018-03-17T07:18:30.167Z,91.50
2018-03-17T07:20:57.755Z,91.30
2018-03-17T07:23:26.113Z,91.40
2018-03-17T07:25:53.711Z,91.70
2018-03-17T07:28:21.355Z,91.40
2018-03-17T07:30:48.944Z,91.50
2018-03-17T07:33:16.533Z,91.20
2018-03-17T07:35:44.878Z,91.50
2018-03-17T07:38:12.495Z,91.50
2018-03-17T07:40:40.079Z,91.50
2018-03-17T07:43:07.667Z,92.10
2018-03-17T07:45:35.246Z,92.10
2018-03-17T07:48:02.840Z,91.90
2018-03-17T07:50:31.243Z,91.70
2018-03-17T07:52:58.828Z,91.70
2018-03-17T07:55:26.410Z,91.70
2018-03-17T07:57:54.001Z,91.70
2018-03-17T08:00:21.595Z,91.30
2018-03-17T08:02:49.184Z,91.60
2018-03-17T08:05:16.799Z,91.30
2018-03-17T08:07:45.159Z,91.00
2018-03-17T08:10:12.748Z,90.90
2018-03-17T08:12:41.107Z,90.70
2018-03-17T08:15:08.691Z,90.70
2018-03-17T08:17:36.279Z,90.60
2018-03-17T08:20:03.894Z,90.70
2018-03-17T08:22:31.483Z,90.30
2018-03-17T08:24:59.071Z,89.90
2018-03-17T08:27:27.447Z,90.10
2018-03-17T08:29:55.799Z,89.90
2018-03-17T08:32:23.388Z,89.90
2018-03-17T08:34:51.743Z,89.80
2018-03-17T08:37:19.333Z,89.80
2018-03-17T08:39:47.687Z,90.10
2018-03-17T08:42:15.283Z,90.10
2018-03-17T08:44:43.643Z,91.00
2018-03-17T08:47:11.234Z,91.10
2018-03-17T08:49:39.578Z,91.20
2018-03-17T08:52:07.172Z,91.30
2018-03-17T08:54:35.824Z,90.90
2018-03-17T08:57:04.173Z,90.90
2018-03-17T08:59:31.783Z,90.90
2018-03-17T09:01:59.383Z,90.90
2018-03-17T09:04:27.746Z,90.40
2018-03-17T09:06:55.343Z,90.40
2018-03-17T09:09:22.936Z,90.20
2018-03-17T09:11:50.543Z,90.50
2018-03-17T09:14:18.144Z,90.10
2018-03-17T09:16:45.734Z,90.20
2018-03-17T09:19:13.319Z,90.40
2018-03-17T09:21:40.907Z,89.30
2018-03-17T09:24:08.508Z,90.60
2018-03-17T09:26:36.090Z,90.10
2018-03-17T09:29:03.691Z,90.10
2018-03-17T09:31:31.280Z,89.80
2018-03-17T09:33:59.636Z,87.20
2018-03-17T09:36:27.227Z,87.20
2018-03-17T09:38:55.591Z,87.90
2018-03-17T09:41:23.197Z,87.90
2018-03-17T09:43:50.783Z,87.70
2018-03-17T09:46:18.375Z,86.90
2018-03-17T09:49:02.471Z,85.50
2018-03-17T09:51:32.303Z,85.00
2018-03-17T09:54:00.002Z,85.60
2018-03-17T09:56:27.659Z,84.90
2018-03-17T09:58:55.252Z,85.20
2018-03-17T10:01:23.611Z,84.40
2018-03-17T10:03:51.208Z,84.40
2018-03-17T10:06:19.863Z,84.60
2018-03-17T10:08:47.501Z,84.70
2018-03-17T10:11:15.083Z,84.50
2018-03-17T10:13:42.662Z,84.20
2018-03-17T10:16:10.263Z,84.90
2018-03-17T10:18:37.933Z,86.10
2018-03-17T10:21:05.528Z,85.30
2018-03-17T10:23:33.122Z,84.00
2018-03-17T10:26:00.754Z,83.20
2018-03-17T10:28:28.334Z,84.20
2018-03-17T10:30:56.007Z,85.40
2018-03-17T10:33:24.366Z,84.00
2018-03-17T10:35:51.987Z,83.90
2018-03-17T10:38:20.343Z,83.80
2018-03-17T10:40:47.939Z,83.50
2018-03-17T10:43:16.310Z,84.40
2018-03-17T10:45:43.895Z,84.40
2018-03-17T10:48:12.283Z,83.80
2018-03-17T10:50:40.815Z,84.20
2018-03-17T10:53:08.449Z,84.20
2018-03-17T10:55:36.050Z,83.50
2018-03-17T10:58:03.674Z,84.00
2018-03-17T11:00:31.348Z,84.80
2018-03-17T11:02:58.956Z,85.40
2018-03-17T11:05:26.568Z,83.40
2018-03-17T11:07:54.930Z,82.80
2018-03-17T11:10:23.291Z,84.70
2018-03-17T11:12:51.123Z,84.70
2018-03-17T11:15:18.733Z,84.80
2018-03-17T11:17:47.211Z,84.50
2018-03-17T11:20:14.876Z,85.30
2018-03-17T11:22:42.506Z,85.20
2018-03-17T11:25:10.151Z,83.80
2018-03-17T11:27:37.752Z,84.50
2018-03-17T11:30:05.366Z,83.80
2018-03-17T11:32:33.723Z,84.70
2018-03-17T11:35:01.362Z,84.80
2018-03-17T11:37:29.728Z,83.60
2018-03-17T11:39:57.363Z,83.60
2018-03-17T11:42:25.743Z,83.60
2018-03-17T11:44:53.415Z,83.60
2018-03-17T11:47:21.787Z,83.80
2018-03-17T11:49:49.439Z,83.80
2018-03-17T11:52:17.064Z,83.80
2018-03-17T11:54:44.751Z,84.40
2018-03-17T11:57:12.327Z,84.00
2018-03-17T11:59:39.924Z,85.10
2018-03-17T12:02:08.289Z,85.80
2018-03-17T12:04:35.904Z,85.80
2018-03-17T12:07:03.556Z,85.70
2018-03-17T12:09:31.195Z,85.30
2018-03-17T12:11:59.706Z,86.60
2018-03-17T12:14:27.304Z,86.60
2018-03-17T12:16:54.939Z,86.10
2018-03-17T12:19:22.576Z,85.20
2018-03-17T12:21:50.937Z,86.10
2018-03-17T12:24:18.531Z,85.90
2018-03-17T12:26:46.895Z,86.60
2018-03-17T12:29:14.487Z,86.50
2018-03-17T12:31:42.871Z,85.50
2018-03-17T12:34:10.497Z,85.50
2018-03-17T12:36:38.141Z,85.90
2018-03-17T12:39:05.764Z,85.80
2018-03-17T12:41:33.359Z,86.00
2018-03-17T12:44:00.952Z,85.50
2018-03-17T12:46:28.547Z,85.20
2018-03-17T12:48:56.907Z,84.40
2018-03-17T12:51:24.508Z,84.40
2018-03-17T12:53:52.854Z,85.40
2018-03-17T12:56:20.459Z,85.40
2018-03-17T12:58:48.067Z,86.00
2018-03-17T13:01:15.647Z,85.20
2018-03-17T13:03:43.274Z,85.50
2018-03-17T13:06:10.883Z,84.60
2018-03-17T13:08:38.479Z,84.90
2018-03-17T13:11:06.830Z,85.30
2018-03-17T13:13:34.415Z,85.30
2018-03-17T13:16:02.776Z,84.80
2018-03-17T13:18:30.370Z,84.10
2018-03-17T13:20:58.749Z,84.70
2018-03-17T13:23:27.107Z,85.60
2018-03-17T13:25:54.704Z,85.60
2018-03-17T13:28:25.964Z,84.40
2018-03-17T13:30:53.556Z,84.40
2018-03-17T13:33:21.151Z,85.30
2018-03-17T13:38:51.299Z,85.40
2018-03-17T13:41:19.654Z,86.00
2018-03-17T13:43:48.007Z,85.80
2018-03-17T13:46:15.597Z,86.30
2018-03-17T13:48:43.199Z,85.00
2018-03-17T13:51:11.567Z,86.50
2018-03-17T13:53:39.166Z,85.80
2018-03-17T13:56:06.751Z,86.50
2018-03-17T13:58:34.415Z,86.00
2018-03-17T14:01:02.047Z,85.50
2018-03-17T14:03:30.408Z,86.10
2018-03-17T14:05:58.055Z,86.10
2018-03-17T14:08:25.647Z,86.20
2018-03-17T14:10:54.003Z,86.00
2018-03-17T14:13:21.595Z,86.00
2018-03-17T14:15:49.994Z,86.00
2018-03-17T14:18:18.347Z,85.30
2018-03-17T14:20:45.934Z,85.40
2018-03-17T14:23:14.287Z,85.60
2018-03-17T14:25:41.870Z,85.50
2018-03-17T14:28:09.454Z,84.90
2018-03-17T14:30:37.807Z,86.70
2018-03-17T14:33:05.405Z,86.70
2018-03-17T14:35:32.995Z,86.10
2018-03-17T14:38:00.603Z,86.20
2018-03-17T14:40:28.698Z,86.10
2018-03-17T14:42:57.051Z,85.70
2018-03-17T14:45:25.104Z,85.60
2018-03-17T14:47:53.620Z,85.80
2018-03-17T14:50:22.327Z,86.00
2018-03-17T14:52:50.682Z,85.70
2018-03-17T14:55:18.271Z,85.70
2018-03-17T14:57:46.625Z,85.90
2018-03-17T15:00:14.211Z,85.90
2018-03-17T15:02:41.811Z,86.90
2018-03-17T15:05:09.399Z,85.20
2018-03-17T15:07:36.987Z,86.10
2018-03-17T15:10:04.601Z,86.60
2018-03-17T15:12:32.196Z,85.90
2018-03-17T15:14:59.787Z,86.20
2018-03-17T15:17:27.375Z,86.00
2018-03-17T15:19:55.735Z,87.10
2018-03-17T15:22:23.324Z,87.10
2018-03-17T15:24:51.680Z,87.00
2018-03-17T15:27:19.271Z,86.90
2018-03-17T15:29:47.628Z,86.70
2018-03-17T15:32:15.215Z,86.60
2018-03-17T15:34:43.568Z,88.00
2018-03-17T15:37:11.158Z,87.40
2018-03-17T15:39:38.750Z,86.90
2018-03-17T15:42:06.339Z,86.50
2018-03-17T15:44:33.932Z,85.80
2018-03-17T15:47:01.982Z,86.40
2018-03-17T15:49:29.579Z,86.50
2018-03-17T15:51:57.173Z,86.50
2018-03-17T15:54:25.557Z,87.70
2018-03-17T15:56:53.914Z,87.80
2018-03-17T15:59:21.503Z,87.80
2018-03-17T16:01:49.875Z,87.20
2018-03-17T16:04:18.239Z,87.10
2018-03-17T16:06:45.827Z,87.10
2018-03-17T16:09:14.188Z,87.50
2018-03-17T16:11:41.782Z,87.40
2018-03-17T16:14:10.153Z,87.90
2018-03-17T16:16:38.507Z,88.00
2018-03-17T16:19:07.088Z,88.00
2018-03-17T16:21:34.699Z,87.90
2018-03-17T16:24:03.070Z,88.00
2018-03-17T16:26:31.431Z,87.50
2018-03-17T16:28:59.062Z,87.50
2018-03-17T16:31:26.656Z,87.50
2018-03-17T16:33:54.255Z,88.00
2018-03-17T16:36:22.611Z,88.90
2018-03-17T16:38:50.199Z,88.20
2018-03-17T16:41:18.832Z,88.40
2018-03-17T16:43:46.423Z,88.40
2018-03-17T16:46:14.036Z,88.70
2018-03-17T16:48:41.623Z,88.70
2018-03-17T16:51:09.215Z,88.70
2018-03-17T16:53:36.823Z,88.60
2018-03-17T16:56:04.436Z,88.60
2018-03-17T16:58:32.029Z,88.50
2018-03-17T17:00:59.618Z,88.10
2018-03-17T17:03:28.013Z,88.40
2018-03-17T17:05:55.727Z,88.40
2018-03-17T17:08:23.327Z,88.60
2018-03-17T17:10:50.937Z,88.20
2018-03-17T17:13:18.567Z,88.10
2018-03-17T17:15:46.743Z,88.50
2018-03-17T17:18:14.532Z,88.40
2018-03-17T17:20:42.207Z,88.80
2018-03-17T17:23:09.804Z,88.80
2018-03-17T17:25:37.433Z,89.20
2018-03-17T17:28:05.036Z,88.70
2018-03-17T17:30:32.635Z,88.80
2018-03-17T17:33:00.275Z,89.00
2018-03-17T17:35:27.896Z,88.90
2018-03-17T17:37:55.497Z,88.80
2018-03-17T17:40:23.091Z,89.40
2018-03-17T17:42:51.499Z,89.10
2018-03-17T17:45:19.104Z,89.10
2018-03-17T17:47:46.708Z,88.40
2018-03-17T17:50:14.319Z,89.00
2018-03-17T17:52:41.912Z,89.40
2018-03-17T17:55:09.507Z,89.30
2018-03-17T17:57:37.910Z,89.00
2018-03-17T18:00:06.464Z,88.90
2018-03-17T18:02:34.823Z,88.60
2018-03-17T18:05:03.177Z,88.50
2018-03-17T18:07:30.807Z,89.10
2018-03-17T18:09:59.207Z,88.90
2018-03-17T18:12:26.819Z,88.90
2018-03-17T18:14:54.415Z,88.60
2018-03-17T18:17:22.779Z,88.90
2018-03-17T18:19:50.403Z,88.90
2018-03-17T18:22:18.000Z,88.80
2018-03-17T18:24:45.591Z,88.90
2018-03-17T18:27:13.950Z,88.90
2018-03-17T18:29:41.544Z,88.90
2018-03-17T18:32:09.900Z,88.70
2018-03-17T18:34:37.497Z,88.70
2018-03-17T18:37:05.856Z,89.10
2018-03-17T18:39:33.442Z,89.10
2018-03-17T18:42:01.804Z,89.10
2018-03-17T18:44:29.399Z,89.00
2018-03-17T18:46:56.991Z,89.20
2018-03-17T18:49:24.587Z,89.10
2018-03-17T18:51:52.179Z,88.90
2018-03-17T18:54:20.531Z,89.20
2018-03-17T18:56:48.119Z,89.20
2018-03-17T18:59:16.480Z,88.80
2018-03-17T19:01:44.073Z,88.80
2018-03-17T19:04:12.434Z,88.80
2018-03-17T19:06:40.030Z,88.70
2018-03-17T19:09:07.619Z,88.70
2018-03-17T19:11:35.211Z,89.50
2018-03-17T19:14:02.820Z,88.80
2018-03-17T19:16:31.172Z,88.60
2018-03-17T19:18:58.767Z,88.60
2018-03-17T19:21:27.169Z,88.40
2018-03-17T19:23:54.767Z,88.40
2018-03-17T19:26:22.358Z,88.60
2018-03-17T19:28:49.951Z,89.00
2018-03-17T19:31:17.543Z,88.60
2018-03-17T19:33:45.140Z,88.20
2018-03-17T19:36:12.764Z,88.40
2018-03-17T19:38:40.399Z,88.40
2018-03-17T19:41:08.756Z,88.10
2018-03-17T19:43:36.343Z,88.10
2018-03-17T19:46:04.715Z,88.20
2018-03-17T19:48:32.314Z,88.20
2018-03-17T19:50:59.908Z,88.10
2018-03-17T19:53:27.538Z,88.20
2018-03-17T19:55:55.134Z,88.20
2018-03-17T19:58:22.796Z,88.10
2018-03-17T20:00:50.413Z,88.30
2018-03-17T20:03:18.014Z,88.20
2018-03-17T20:05:45.615Z,88.30
2018-03-17T20:08:13.219Z,87.90
2018-03-17T20:10:41.600Z,87.70
2018-03-17T20:13:09.961Z,88.00
2018-03-17T20:15:37.551Z,88.00
2018-03-17T20:18:05.193Z,87.90
2018-03-17T20:20:32.788Z,87.70
2018-03-17T20:23:01.147Z,87.30
2018-03-17T20:25:28.745Z,87.30
2018-03-17T20:27:56.348Z,87.30
2018-03-17T20:30:23.971Z,88.30
2018-03-17T20:32:51.568Z,87.00
2018-03-17T20:35:19.241Z,87.10
2018-03-17T20:37:46.841Z,87.10
2018-03-17T20:40:14.438Z,87.50
2018-03-17T20:42:42.088Z,87.10
2018-03-17T20:45:09.772Z,86.40
2018-03-17T20:47:37.407Z,86.60
2018-03-17T20:50:05.849Z,86.70
2018-03-17T20:52:33.444Z,86.70
2018-03-17T20:55:01.040Z,86.40
2018-03-17T20:57:28.646Z,85.90
2018-03-17T20:59:56.308Z,85.80
2018-03-17T21:02:23.890Z,85.60
2018-03-17T21:04:51.479Z,85.10
2018-03-17T21:07:19.071Z,84.70
2018-03-17T21:09:46.660Z,84.80
2018-03-17T21:12:14.251Z,84.70
2018-03-17T21:14:41.840Z,83.60
2018-03-17T21:17:09.440Z,83.90
2018-03-17T21:19:37.071Z,84.60
2018-03-17T21:22:05.436Z,82.70
2018-03-17T21:24:33.023Z,82.70
2018-03-17T21:27:01.405Z,83.70
2018-03-17T21:29:29.819Z,82.10
2018-03-17T21:31:57.410Z,82.00
2018-03-17T21:34:25.003Z,81.90
2018-03-17T21:36:52.597Z,81.70
2018-03-17T21:39:20.947Z,81.60
2018-03-17T21:41:48.535Z,81.60
2018-03-17T21:44:16.892Z,80.00
2018-03-17T21:46:44.483Z,79.90
2018-03-17T21:49:12.838Z,80.10
2018-03-17T21:51:40.423Z,80.10
2018-03-17T21:54:08.781Z,80.00
2018-03-17T21:56:36.370Z,80.00
2018-03-17T21:59:03.971Z,79.10
2018-03-17T22:01:31.573Z,78.60
2018-03-17T22:03:59.165Z,79.30
2018-03-17T22:06:27.523Z,79.70
2018-03-17T22:08:55.120Z,79.70
2018-03-17T22:11:23.475Z,78.30
2018-03-17T22:13:51.064Z,78.30
2018-03-17T22:16:19.423Z,77.80
2018-03-17T22:18:47.032Z,77.80
2018-03-17T22:21:14.667Z,77.40
2018-03-17T22:23:42.264Z,77.50
2018-03-17T22:26:09.860Z,77.60
2018-03-17T22:28:37.455Z,77.10
2018-03-17T22:31:05.051Z,78.00
2018-03-17T22:33:33.408Z,77.90
2018-03-17T22:36:00.994Z,77.90
2018-03-17T22:38:29.346Z,77.10
2018-03-17T22:40:56.939Z,77.10
2018-03-17T22:43:25.296Z,76.50
2018-03-17T22:45:52.888Z,76.50
2018-03-17T22:48:21.243Z,75.90
2018-03-17T22:50:48.831Z,75.90
2018-03-17T22:53:17.183Z,75.70
2018-03-17T22:55:44.770Z,75.70
2018-03-17T22:58:13.127Z,76.30
2018-03-17T23:00:40.735Z,76.30
2018-03-17T23:03:08.351Z,76.40
2018-03-17T23:05:35.944Z,76.10
2018-03-17T23:08:03.547Z,76.50
2018-03-17T23:10:31.143Z,76.30
2018-03-17T23:12:58.740Z,76.50
2018-03-17T23:15:26.379Z,76.80
2018-03-17T23:17:53.970Z,76.80
2018-03-17T23:20:22.327Z,76.90
2018-03-17T23:22:49.914Z,77.40
2018-03-17T23:25:17.503Z,76.60
2018-03-17T23:27:45.100Z,76.10
2018-03-17T23:30:12.687Z,76.50
2018-03-17T23:32:40.301Z,75.90
2018-03-17T23:35:07.889Z,76.40
2018-03-17T23:37:35.483Z,75.80
2018-03-17T23:40:03.116Z,76.00
2018-03-17T23:42:30.699Z,75.90
2018-03-17T23:44:58.300Z,76.10
2018-03-17T23:47:25.916Z,75.70
2018-03-17T23:49:53.574Z,75.60
2018-03-17T23:52:21.174Z,75.90
2018-03-17T23:54:50.294Z,75.70
2018-03-17T23:57:17.903Z,75.30
2018-03-17T23:59:45.510Z,75.90
